Marcel — ONDP — position and weather

sailwx.info

Track history (hours):
 
Tides and Currents Weather Stations Pressure Air Temp Water Temp Dewpoint Dewpoint Depression Visibility Wind Speed Wind Dir Waves Ship Positions

Marcel

Last reported at 2016-Nov-25 12:33 UTC. Time now 2016-Dec-09 19:48 UTC.
Position N 48°05' W 005°09'.
Warning: this ship's position is 14 days out of date.

Length 88 m; draft 5.5 m.

Type: Cargo ship. MMSI: 205439000.

Date/timePositionNaut miles runAvg speedWind from/ knotsBaromVisibWave heightAir tempDewpointWater temp
2016-Nov-25 12:33N 48°05' W 005°09'9 8.8
2016-Nov-25 11:33N 48°07' W 004°56'9 9.5
2016-Nov-25 10:34N 48°07' W 004°42'9 8.7
2016-Nov-25 09:34N 48°10' W 004°30'2 1.9
2016-Nov-25 08:26N 48°12' W 004°29'0 0.0
2016-Nov-25 07:32N 48°12' W 004°29'0 0.0
2016-Nov-25 06:31N 48°12' W 004°29'0 0.0
2016-Nov-25 05:31N 48°12' W 004°29'0 0.0
2016-Nov-25 04:28N 48°12' W 004°29'0 0.0
2016-Nov-25 03:25N 48°12' W 004°29'0 0.0
2016-Nov-25 02:30N 48°12' W 004°29'0 0.0
2016-Nov-25 01:34N 48°12' W 004°29'0 0.0
2016-Nov-25 00:23N 48°12' W 004°29'0 0.0
2016-Nov-24 23:32N 48°12' W 004°29'0 0.0
2016-Nov-24 22:33N 48°12' W 004°29'0 0.0
2016-Nov-24 21:32N 48°12' W 004°29'0 0.0
2016-Nov-24 20:29N 48°12' W 004°29'0 0.0
2016-Nov-24 19:31N 48°12' W 004°29'0 0.0
2016-Nov-24 18:33N 48°12' W 004°29'0 0.0
2016-Nov-24 17:10N 48°12' W 004°29'0 0.0
2016-Nov-24 16:19N 48°12' W 004°29'0 0.0
2016-Nov-24 15:33N 48°12' W 004°29'0 0.0
2016-Nov-24 14:34N 48°12' W 004°29'0 0.0
2016-Nov-24 13:33N 48°12' W 004°29'0 0.0
2016-Nov-24 12:33N 48°12' W 004°29'0 0.0
2016-Nov-24 11:33N 48°12' W 004°29'0 0.0
2016-Nov-24 10:07N 48°12' W 004°29'0 0.0
2016-Nov-24 09:31N 48°12' W 004°29'0 0.0
2016-Nov-24 08:28N 48°12' W 004°29'0 0.0
2016-Nov-24 07:27N 48°12' W 004°29'0 0.0
2016-Nov-24 06:28N 48°12' W 004°29'0 0.0
2016-Nov-24 05:32N 48°12' W 004°29'0 0.0
2016-Nov-24 04:32N 48°12' W 004°29'0 0.0
2016-Nov-24 03:31N 48°12' W 004°29'0 0.0
2016-Nov-24 02:32N 48°12' W 004°29'0 0.0
2016-Nov-24 01:33N 48°12' W 004°29'0 0.0
2016-Nov-24 00:28N 48°12' W 004°29'0 0.0
2016-Nov-23 23:31N 48°12' W 004°29'0 0.0
2016-Nov-23 22:31N 48°12' W 004°29'0 0.0
2016-Nov-23 21:33N 48°12' W 004°29'0 0.0
2016-Nov-23 20:32N 48°12' W 004°29'0 0.0
2016-Nov-23 19:31N 48°12' W 004°29'0 0.0
2016-Nov-23 18:31N 48°12' W 004°29'0 0.1
2016-Nov-23 17:33N 48°12' W 004°29'6 5.6
2016-Nov-23 16:31N 48°08' W 004°34'8 8.9
2016-Nov-23 15:33N 48°08' W 004°47'9 9.3
2016-Nov-23 14:33N 48°10' W 005°01'156 7.0
2016-Nov-22 16:21N 49°50' W 001°58'5 6.2
2016-Nov-22 15:34N 49°50' W 001°51'6 6.0
2016-Nov-22 14:33N 49°50' W 001°41'6 5.9
2016-Nov-22 13:33N 49°49' W 001°32'30 1.8
2016-Nov-21 21:10N 49°41' W 000°47'121 7.8
2016-Nov-21 05:33N 51°06' E 001°29'7 7.0
2016-Nov-21 04:33N 51°10' E 001°38'18 8.8
2016-Nov-21 02:33N 51°24' E 001°56'20 9.9
2016-Nov-21 00:33N 51°22' E 002°27'2110.6
2016-Nov-20 22:34N 51°24' E 003°01'1111.1
2016-Nov-20 21:33N 51°25' E 003°19'32 8.0
2016-Nov-20 17:33N 51°23' E 004°10'7 6.9
2016-Nov-20 16:31N 51°18' E 004°18'5 2.4
2016-Nov-20 14:34N 51°15' E 004°24'0 0.0
2016-Nov-20 13:27N 51°15' E 004°24'0 0.0
2016-Nov-20 12:33N 51°15' E 004°24'0 0.0
2016-Nov-20 09:26N 51°15' E 004°24'0 0.0
2016-Nov-20 08:33N 51°15' E 004°24'0 0.0
2016-Nov-20 07:26N 51°15' E 004°24'0 0.0
2016-Nov-20 06:31N 51°15' E 004°24'0 0.0
2016-Nov-20 05:31N 51°15' E 004°24'0 0.0
2016-Nov-20 04:32N 51°15' E 004°24'0 0.0
2016-Nov-20 03:28N 51°15' E 004°24'0 0.0
2016-Nov-20 01:31N 51°15' E 004°24'0 0.0
2016-Nov-19 23:30N 51°15' E 004°24'0 0.0
2016-Nov-19 22:33N 51°15' E 004°24'0 0.0
2016-Nov-19 20:31N 51°15' E 004°24'0 0.0
2016-Nov-19 19:28N 51°15' E 004°24'0 0.0
2016-Nov-19 17:32N 51°15' E 004°24'0 0.0
2016-Nov-19 16:33N 51°15' E 004°24'0 0.0
2016-Nov-19 14:32N 51°15' E 004°24'0 0.0
2016-Nov-19 11:26N 51°15' E 004°24'0 0.0
2016-Nov-19 09:33N 51°15' E 004°24'0 0.0
2016-Nov-19 07:29N 51°15' E 004°24'0 0.0
2016-Nov-19 05:26N 51°15' E 004°24'0 0.0
2016-Nov-19 04:31N 51°15' E 004°24'0 0.0
2016-Nov-19 03:27N 51°15' E 004°24'0 0.0
2016-Nov-19 02:30N 51°15' E 004°24'0 0.0
2016-Nov-19 01:29N 51°15' E 004°24'0 0.0
2016-Nov-19 00:33N 51°15' E 004°24'0 0.0
2016-Nov-18 23:23N 51°15' E 004°24'0 0.0
2016-Nov-18 20:31N 51°15' E 004°24'0 0.0
2016-Nov-18 18:30N 51°15' E 004°24'0 0.0
2016-Nov-18 17:29N 51°15' E 004°24'0 0.0
2016-Nov-18 14:31N 51°15' E 004°24'1 0.4
2016-Nov-18 12:33N 51°15' E 004°23'0 0.3
2016-Nov-18 11:29N 51°15' E 004°23'0 0.0
2016-Nov-18 09:30N 51°15' E 004°23'0 0.0
2016-Nov-18 07:30N 51°15' E 004°23'0 0.0
2016-Nov-18 05:28N 51°15' E 004°23'0 0.0
2016-Nov-18 04:32N 51°15' E 004°23'0 0.0
2016-Nov-18 01:30N 51°15' E 004°23'0 0.0
2016-Nov-18 00:32N 51°15' E 004°23'0 0.0
2016-Nov-17 23:31N 51°15' E 004°23'0 0.0
2016-Nov-17 22:30N 51°15' E 004°23'0 0.0
2016-Nov-17 21:30N 51°15' E 004°23'0 0.0
2016-Nov-17 19:32N 51°15' E 004°23'0 0.0
2016-Nov-17 18:29N 51°15' E 004°23'0 0.0
2016-Nov-17 14:29N 51°15' E 004°23'0 0.0
2016-Nov-17 13:32N 51°15' E 004°23'0 0.0
2016-Nov-17 12:27N 51°15' E 004°23'0 0.0
2016-Nov-17 11:32N 51°15' E 004°23'0 0.0
2016-Nov-17 08:31N 51°15' E 004°23'0 0.0
2016-Nov-17 06:28N 51°15' E 004°23'0 0.0
2016-Nov-17 02:28N 51°15' E 004°23'0 0.0
2016-Nov-16 23:32N 51°15' E 004°23'0 0.0
2016-Nov-16 22:27N 51°15' E 004°23'0 0.0
2016-Nov-16 20:28N 51°15' E 004°23'0 0.0
2016-Nov-16 19:31N 51°15' E 004°23'0 0.0
2016-Nov-16 18:26N 51°15' E 004°23'0 0.0
2016-Nov-16 17:31N 51°15' E 004°23'0 0.0
2016-Nov-16 16:27N 51°15' E 004°23'0 0.0
2016-Nov-16 12:18N 51°15' E 004°23'0 0.0
2016-Nov-16 09:27N 51°15' E 004°23'0 0.0
2016-Nov-16 08:31N 51°15' E 004°23'0 0.0
2016-Nov-16 07:31N 51°15' E 004°23'0 0.0
2016-Nov-16 06:33N 51°15' E 004°23'0 0.0
2016-Nov-16 04:30N 51°15' E 004°23'0 0.0
2016-Nov-16 03:27N 51°15' E 004°23'0 0.0
2016-Nov-16 02:29N 51°15' E 004°23'0 0.0
2016-Nov-16 01:26N 51°15' E 004°23'0 0.0
2016-Nov-15 21:26N 51°15' E 004°23'0 0.0
2016-Nov-15 19:26N 51°15' E 004°23'0 0.0
2016-Nov-15 18:30N 51°15' E 004°23'0 0.0
2016-Nov-15 13:28N 51°15' E 004°23'  
Track history (hours):
 
Tides and Currents Weather Stations Pressure Air Temp Water Temp Dewpoint Dewpoint Depression Visibility Wind Speed Wind Dir Waves Ship Positions

Marcel

Last reported at 2016-Nov-25 12:33 UTC. Time now 2016-Dec-09 19:48 UTC.
Position N 48°05' W 005°09'.
Warning: this ship's position is 14 days out of date.

Length 88 m; draft 5.5 m.

Type: Cargo ship. MMSI: 205439000.

Date/timePositionNaut miles runAvg speedWind from/ knotsBaromVisibWave heightAir tempDewpointWater temp
2016-Nov-25 12:33N 48°05' W 005°09'9 8.8
2016-Nov-25 11:33N 48°07' W 004°56'9 9.5
2016-Nov-25 10:34N 48°07' W 004°42'9 8.7
2016-Nov-25 09:34N 48°10' W 004°30'2 1.9
2016-Nov-25 08:26N 48°12' W 004°29'0 0.0
2016-Nov-25 07:32N 48°12' W 004°29'0 0.0
2016-Nov-25 06:31N 48°12' W 004°29'0 0.0
2016-Nov-25 05:31N 48°12' W 004°29'0 0.0
2016-Nov-25 04:28N 48°12' W 004°29'0 0.0
2016-Nov-25 03:25N 48°12' W 004°29'0 0.0
2016-Nov-25 02:30N 48°12' W 004°29'0 0.0
2016-Nov-25 01:34N 48°12' W 004°29'0 0.0
2016-Nov-25 00:23N 48°12' W 004°29'0 0.0
2016-Nov-24 23:32N 48°12' W 004°29'0 0.0
2016-Nov-24 22:33N 48°12' W 004°29'0 0.0
2016-Nov-24 21:32N 48°12' W 004°29'0 0.0
2016-Nov-24 20:29N 48°12' W 004°29'0 0.0
2016-Nov-24 19:31N 48°12' W 004°29'0 0.0
2016-Nov-24 18:33N 48°12' W 004°29'0 0.0
2016-Nov-24 17:10N 48°12' W 004°29'0 0.0
2016-Nov-24 16:19N 48°12' W 004°29'0 0.0
2016-Nov-24 15:33N 48°12' W 004°29'0 0.0
2016-Nov-24 14:34N 48°12' W 004°29'0 0.0
2016-Nov-24 13:33N 48°12' W 004°29'0 0.0
2016-Nov-24 12:33N 48°12' W 004°29'0 0.0
2016-Nov-24 11:33N 48°12' W 004°29'0 0.0
2016-Nov-24 10:07N 48°12' W 004°29'0 0.0
2016-Nov-24 09:31N 48°12' W 004°29'0 0.0
2016-Nov-24 08:28N 48°12' W 004°29'0 0.0
2016-Nov-24 07:27N 48°12' W 004°29'0 0.0
2016-Nov-24 06:28N 48°12' W 004°29'0 0.0
2016-Nov-24 05:32N 48°12' W 004°29'0 0.0
2016-Nov-24 04:32N 48°12' W 004°29'0 0.0
2016-Nov-24 03:31N 48°12' W 004°29'0 0.0
2016-Nov-24 02:32N 48°12' W 004°29'0 0.0
2016-Nov-24 01:33N 48°12' W 004°29'0 0.0
2016-Nov-24 00:28N 48°12' W 004°29'0 0.0
2016-Nov-23 23:31N 48°12' W 004°29'0 0.0
2016-Nov-23 22:31N 48°12' W 004°29'0 0.0
2016-Nov-23 21:33N 48°12' W 004°29'0 0.0
2016-Nov-23 20:32N 48°12' W 004°29'0 0.0
2016-Nov-23 19:31N 48°12' W 004°29'0 0.0
2016-Nov-23 18:31N 48°12' W 004°29'0 0.1
2016-Nov-23 17:33N 48°12' W 004°29'6 5.6
2016-Nov-23 16:31N 48°08' W 004°34'8 8.9
2016-Nov-23 15:33N 48°08' W 004°47'9 9.3
2016-Nov-23 14:33N 48°10' W 005°01'156 7.0
2016-Nov-22 16:21N 49°50' W 001°58'5 6.2
2016-Nov-22 15:34N 49°50' W 001°51'6 6.0
2016-Nov-22 14:33N 49°50' W 001°41'6 5.9
2016-Nov-22 13:33N 49°49' W 001°32'30 1.8
2016-Nov-21 21:10N 49°41' W 000°47'121 7.8
2016-Nov-21 05:33N 51°06' E 001°29'7 7.0
2016-Nov-21 04:33N 51°10' E 001°38'18 8.8
2016-Nov-21 02:33N 51°24' E 001°56'20 9.9
2016-Nov-21 00:33N 51°22' E 002°27'2110.6
2016-Nov-20 22:34N 51°24' E 003°01'1111.1
2016-Nov-20 21:33N 51°25' E 003°19'32 8.0
2016-Nov-20 17:33N 51°23' E 004°10'7 6.9
2016-Nov-20 16:31N 51°18' E 004°18'5 2.4
2016-Nov-20 14:34N 51°15' E 004°24'0 0.0
2016-Nov-20 13:27N 51°15' E 004°24'0 0.0
2016-Nov-20 12:33N 51°15' E 004°24'0 0.0
2016-Nov-20 09:26N 51°15' E 004°24'0 0.0
2016-Nov-20 08:33N 51°15' E 004°24'0 0.0
2016-Nov-20 07:26N 51°15' E 004°24'0 0.0
2016-Nov-20 06:31N 51°15' E 004°24'0 0.0
2016-Nov-20 05:31N 51°15' E 004°24'0 0.0
2016-Nov-20 04:32N 51°15' E 004°24'0 0.0
2016-Nov-20 03:28N 51°15' E 004°24'0 0.0
2016-Nov-20 01:31N 51°15' E 004°24'0 0.0
2016-Nov-19 23:30N 51°15' E 004°24'0 0.0
2016-Nov-19 22:33N 51°15' E 004°24'0 0.0
2016-Nov-19 20:31N 51°15' E 004°24'0 0.0
2016-Nov-19 19:28N 51°15' E 004°24'0 0.0
2016-Nov-19 17:32N 51°15' E 004°24'0 0.0
2016-Nov-19 16:33N 51°15' E 004°24'0 0.0
2016-Nov-19 14:32N 51°15' E 004°24'0 0.0
2016-Nov-19 11:26N 51°15' E 004°24'0 0.0
2016-Nov-19 09:33N 51°15' E 004°24'0 0.0
2016-Nov-19 07:29N 51°15' E 004°24'0 0.0
2016-Nov-19 05:26N 51°15' E 004°24'0 0.0
2016-Nov-19 04:31N 51°15' E 004°24'0 0.0
2016-Nov-19 03:27N 51°15' E 004°24'0 0.0
2016-Nov-19 02:30N 51°15' E 004°24'0 0.0
2016-Nov-19 01:29N 51°15' E 004°24'0 0.0
2016-Nov-19 00:33N 51°15' E 004°24'0 0.0
2016-Nov-18 23:23N 51°15' E 004°24'0 0.0
2016-Nov-18 20:31N 51°15' E 004°24'0 0.0
2016-Nov-18 18:30N 51°15' E 004°24'0 0.0
2016-Nov-18 17:29N 51°15' E 004°24'0 0.0
2016-Nov-18 14:31N 51°15' E 004°24'1 0.4
2016-Nov-18 12:33N 51°15' E 004°23'0 0.3
2016-Nov-18 11:29N 51°15' E 004°23'0 0.0
2016-Nov-18 09:30N 51°15' E 004°23'0 0.0
2016-Nov-18 07:30N 51°15' E 004°23'0 0.0
2016-Nov-18 05:28N 51°15' E 004°23'0 0.0
2016-Nov-18 04:32N 51°15' E 004°23'0 0.0
2016-Nov-18 01:30N 51°15' E 004°23'0 0.0
2016-Nov-18 00:32N 51°15' E 004°23'0 0.0
2016-Nov-17 23:31N 51°15' E 004°23'0 0.0
2016-Nov-17 22:30N 51°15' E 004°23'0 0.0
2016-Nov-17 21:30N 51°15' E 004°23'0 0.0
2016-Nov-17 19:32N 51°15' E 004°23'0 0.0
2016-Nov-17 18:29N 51°15' E 004°23'0 0.0
2016-Nov-17 14:29N 51°15' E 004°23'0 0.0
2016-Nov-17 13:32N 51°15' E 004°23'0 0.0
2016-Nov-17 12:27N 51°15' E 004°23'0 0.0
2016-Nov-17 11:32N 51°15' E 004°23'0 0.0
2016-Nov-17 08:31N 51°15' E 004°23'0 0.0
2016-Nov-17 06:28N 51°15' E 004°23'0 0.0
2016-Nov-17 02:28N 51°15' E 004°23'0 0.0
2016-Nov-16 23:32N 51°15' E 004°23'0 0.0
2016-Nov-16 22:27N 51°15' E 004°23'0 0.0
2016-Nov-16 20:28N 51°15' E 004°23'0 0.0
2016-Nov-16 19:31N 51°15' E 004°23'0 0.0
2016-Nov-16 18:26N 51°15' E 004°23'0 0.0
2016-Nov-16 17:31N 51°15' E 004°23'0 0.0
2016-Nov-16 16:27N 51°15' E 004°23'0 0.0
2016-Nov-16 12:18N 51°15' E 004°23'0 0.0
2016-Nov-16 09:27N 51°15' E 004°23'0 0.0
2016-Nov-16 08:31N 51°15' E 004°23'0 0.0
2016-Nov-16 07:31N 51°15' E 004°23'0 0.0
2016-Nov-16 06:33N 51°15' E 004°23'0 0.0
2016-Nov-16 04:30N 51°15' E 004°23'0 0.0
2016-Nov-16 03:27N 51°15' E 004°23'0 0.0
2016-Nov-16 02:29N 51°15' E 004°23'0 0.0
2016-Nov-16 01:26N 51°15' E 004°23'0 0.0
2016-Nov-15 21:26N 51°15' E 004°23'0 0.0
2016-Nov-15 19:26N 51°15' E 004°23'0 0.0
2016-Nov-15 18:30N 51°15' E 004°23'0 0.0
2016-Nov-15 13:28N 51°15' E 004°23'  

Dump ship's entire track history